createdAt,value
2018-06-17T00:00:22.740Z,20.11
2018-06-17T00:01:22.742Z,20.13
2018-06-17T00:02:23.009Z,20.19
2018-06-17T00:03:22.823Z,20.16
2018-06-17T00:04:23.007Z,20.16
2018-06-17T00:05:23.014Z,20.14
2018-06-17T00:06:23.004Z,20.14
2018-06-17T00:07:22.766Z,20.13
2018-06-17T00:08:22.774Z,20.18
2018-06-17T00:09:23.467Z,20.14
2018-06-17T00:10:23.021Z,20.16
2018-06-17T00:11:23.014Z,20.24
2018-06-17T00:12:22.783Z,20.24
2018-06-17T00:13:23.025Z,20.19
2018-06-17T00:14:23.020Z,20.19
2018-06-17T00:15:23.084Z,20.21
2018-06-17T00:16:23.045Z,20.25
2018-06-17T00:17:23.021Z,20.29
2018-06-17T00:18:23.038Z,20.26
2018-06-17T00:19:22.797Z,20.32
2018-06-17T00:20:22.863Z,20.32
2018-06-17T00:21:23.033Z,20.28
2018-06-17T00:22:22.797Z,20.32
2018-06-17T00:23:22.527Z,20.26
2018-06-17T00:24:22.856Z,20.29
2018-06-17T00:25:23.046Z,20.28
2018-06-17T00:26:22.794Z,20.26
2018-06-17T00:27:22.798Z,20.32
2018-06-17T00:28:22.793Z,20.29
2018-06-17T00:29:22.822Z,20.26
2018-06-17T00:30:23.097Z,20.25
2018-06-17T00:31:23.063Z,20.29
2018-06-17T00:32:23.045Z,20.19
2018-06-17T00:33:22.815Z,20.32
2018-06-17T00:34:23.056Z,20.26
2018-06-17T00:35:22.881Z,20.34
2018-06-17T00:36:23.105Z,20.28
2018-06-17T00:37:23.052Z,20.28
2018-06-17T00:38:22.560Z,20.29
2018-06-17T00:39:24.463Z,20.21
2018-06-17T00:40:22.870Z,20.26
2018-06-17T00:41:23.068Z,20.24
2018-06-17T00:42:23.088Z,20.31
2018-06-17T00:43:23.075Z,20.21
2018-06-17T00:44:23.075Z,20.25
2018-06-17T00:45:22.845Z,20.18
2018-06-17T00:46:23.079Z,20.22
2018-06-17T00:47:23.325Z,20.31
2018-06-17T00:48:23.094Z,20.22
2018-06-17T00:49:22.832Z,20.24
2018-06-17T00:50:23.185Z,20.25
2018-06-17T00:51:23.091Z,20.25
2018-06-17T00:52:22.838Z,20.21
2018-06-17T00:53:22.587Z,20.21
2018-06-17T00:54:22.903Z,20.26
2018-06-17T00:55:23.126Z,20.29
2018-06-17T00:56:22.881Z,20.24
2018-06-17T00:57:23.103Z,20.16
2018-06-17T00:58:23.106Z,20.22
2018-06-17T00:59:23.109Z,20.25
2018-06-17T01:00:22.889Z,20.28
2018-06-17T01:01:22.865Z,20.28
2018-06-17T01:02:23.119Z,20.24
2018-06-17T01:03:23.104Z,20.21
2018-06-17T01:04:22.860Z,20.24
2018-06-17T01:05:23.117Z,20.22
2018-06-17T01:06:22.880Z,20.16
2018-06-17T01:07:23.147Z,20.24
2018-06-17T01:08:22.884Z,20.21
2018-06-17T01:09:22.612Z,20.14
2018-06-17T01:10:23.154Z,20.22
2018-06-17T01:11:22.900Z,20.22
2018-06-17T01:12:23.166Z,20.14
2018-06-17T01:13:22.647Z,20.24
2018-06-17T01:14:23.126Z,20.22
2018-06-17T01:15:23.175Z,20.21
2018-06-17T01:16:22.623Z,20.19
2018-06-17T01:17:22.892Z,20.22
2018-06-17T01:18:23.131Z,20.18
2018-06-17T01:19:23.133Z,20.24
2018-06-17T01:20:23.203Z,20.14
2018-06-17T01:21:23.134Z,20.19
2018-06-17T01:22:23.157Z,20.16
2018-06-17T01:23:23.159Z,20.21
2018-06-17T01:24:22.908Z,20.13
2018-06-17T01:25:22.971Z,20.24
2018-06-17T01:26:23.154Z,20.22
2018-06-17T01:27:22.654Z,20.19
2018-06-17T01:28:23.171Z,20.25
2018-06-17T01:29:22.906Z,20.11
2018-06-17T01:30:22.921Z,20.21
2018-06-17T01:31:22.917Z,20.16
2018-06-17T01:32:23.173Z,20.22
2018-06-17T01:33:22.660Z,20.24
2018-06-17T01:34:22.930Z,20.14
2018-06-17T01:35:22.987Z,20.14
2018-06-17T01:36:23.176Z,20.21
2018-06-17T01:37:22.669Z,20.21
2018-06-17T01:38:23.177Z,20.19
2018-06-17T01:39:22.960Z,20.18
2018-06-17T01:40:22.932Z,20.19
2018-06-17T01:41:23.176Z,20.25
2018-06-17T01:42:22.936Z,20.29
2018-06-17T01:43:23.184Z,20.22
2018-06-17T01:44:22.947Z,20.18
2018-06-17T01:45:23.240Z,20.22
2018-06-17T01:46:22.954Z,20.22
2018-06-17T01:47:23.197Z,20.14
2018-06-17T01:48:22.948Z,20.24
2018-06-17T01:49:22.942Z,20.16
2018-06-17T01:50:22.978Z,20.18
2018-06-17T01:51:23.204Z,20.21
2018-06-17T01:52:23.203Z,20.19
2018-06-17T01:53:22.949Z,20.16
2018-06-17T01:54:22.973Z,20.26
2018-06-17T01:55:23.068Z,20.22
2018-06-17T01:56:22.963Z,20.22
2018-06-17T01:57:23.212Z,20.21
2018-06-17T01:58:23.209Z,20.22
2018-06-17T01:59:23.212Z,20.26
2018-06-17T02:00:23.225Z,20.28
2018-06-17T02:01:23.215Z,20.36
2018-06-17T02:02:23.209Z,20.26
2018-06-17T02:03:22.722Z,20.29
2018-06-17T02:04:23.215Z,20.29
2018-06-17T02:05:22.783Z,20.36
2018-06-17T02:06:23.232Z,20.39
2018-06-17T02:07:23.229Z,20.39
2018-06-17T02:08:23.254Z,20.39
2018-06-17T02:09:23.018Z,20.39
2018-06-17T02:10:26.191Z,20.29
2018-06-17T02:11:23.242Z,20.37
2018-06-17T02:12:23.237Z,20.34
2018-06-17T02:13:23.246Z,20.32
2018-06-17T02:14:23.237Z,20.43
2018-06-17T02:15:23.293Z,20.34
2018-06-17T02:16:23.246Z,20.34
2018-06-17T02:17:23.000Z,20.37
2018-06-17T02:18:22.745Z,20.39
2018-06-17T02:19:22.998Z,20.31
2018-06-17T02:20:23.256Z,20.14
2018-06-17T02:21:22.991Z,20.22
2018-06-17T02:22:23.006Z,20.14
2018-06-17T02:23:23.276Z,20.13
2018-06-17T02:24:23.008Z,20.04
2018-06-17T02:25:23.339Z,20.16
2018-06-17T02:26:23.267Z,20.24
2018-06-17T02:27:23.281Z,20.18
2018-06-17T02:28:23.269Z,20.1
2018-06-17T02:29:23.011Z,20.22
2018-06-17T02:30:23.269Z,20.19
2018-06-17T02:31:23.020Z,20.21
2018-06-17T02:32:23.020Z,20.22
2018-06-17T02:33:23.277Z,20.22
2018-06-17T02:34:23.032Z,20.22
2018-06-17T02:35:23.046Z,20.26
2018-06-17T02:36:23.285Z,20.13
2018-06-17T02:37:23.294Z,20.26
2018-06-17T02:38:23.291Z,20.28
2018-06-17T02:39:22.796Z,20.28
2018-06-17T02:40:27.080Z,20.28
2018-06-17T02:41:23.293Z,20.29
2018-06-17T02:42:23.291Z,20.18
2018-06-17T02:43:23.306Z,20.22
2018-06-17T02:44:23.301Z,20.24
2018-06-17T02:45:23.307Z,20.18
2018-06-17T02:46:23.297Z,20.14
2018-06-17T02:47:22.806Z,20.26
2018-06-17T02:48:23.069Z,20.22
2018-06-17T02:49:23.311Z,20.21
2018-06-17T02:50:23.325Z,20.18
2018-06-17T02:51:23.309Z,20.19
2018-06-17T02:52:23.331Z,20.04
2018-06-17T02:53:23.064Z,20.07
2018-06-17T02:54:23.065Z,20.06
2018-06-17T02:55:23.339Z,20.06
2018-06-17T02:56:23.373Z,20.06
2018-06-17T02:57:23.339Z,20
2018-06-17T02:58:23.323Z,19.89
2018-06-17T02:59:23.331Z,20
2018-06-17T03:00:23.364Z,19.95
2018-06-17T03:01:23.075Z,19.96
2018-06-17T03:02:23.092Z,19.96
2018-06-17T03:03:23.329Z,19.95
2018-06-17T03:04:23.353Z,19.88
2018-06-17T03:05:22.857Z,19.82
2018-06-17T03:06:23.342Z,19.91
2018-06-17T03:07:23.126Z,19.79
2018-06-17T03:08:23.082Z,19.81
2018-06-17T03:09:23.104Z,19.81
2018-06-17T03:10:23.351Z,19.84
2018-06-17T03:11:26.610Z,19.85
2018-06-17T03:12:23.109Z,19.88
2018-06-17T03:13:23.107Z,19.79
2018-06-17T03:14:23.354Z,19.81
2018-06-17T03:15:23.358Z,19.77
2018-06-17T03:16:23.356Z,19.85
2018-06-17T03:17:23.357Z,19.85
2018-06-17T03:18:23.122Z,19.84
2018-06-17T03:19:23.369Z,19.82
2018-06-17T03:20:23.375Z,19.82
2018-06-17T03:21:23.364Z,19.81
2018-06-17T03:22:23.115Z,19.73
2018-06-17T03:23:23.132Z,19.67
2018-06-17T03:24:23.371Z,19.73
2018-06-17T03:25:23.367Z,19.73
2018-06-17T03:26:23.174Z,19.76
2018-06-17T03:27:23.132Z,19.74
2018-06-17T03:28:23.399Z,19.85
2018-06-17T03:29:23.400Z,19.84
2018-06-17T03:30:23.238Z,19.81
2018-06-17T03:31:23.408Z,19.84
2018-06-17T03:32:23.418Z,19.82
2018-06-17T03:33:23.134Z,19.79
2018-06-17T03:34:23.143Z,19.82
2018-06-17T03:35:23.428Z,19.85
2018-06-17T03:36:23.404Z,19.88
2018-06-17T03:37:23.399Z,19.84
2018-06-17T03:38:23.146Z,19.77
2018-06-17T03:39:23.176Z,19.82
2018-06-17T03:40:23.178Z,19.86
2018-06-17T03:41:23.449Z,19.88
2018-06-17T03:42:23.398Z,19.82
2018-06-17T03:43:23.156Z,19.85
2018-06-17T03:44:23.401Z,19.79
2018-06-17T03:45:23.471Z,19.84
2018-06-17T03:46:23.427Z,19.84
2018-06-17T03:47:23.414Z,19.79
2018-06-17T03:48:23.173Z,19.79
2018-06-17T03:49:23.163Z,19.81
2018-06-17T03:50:23.190Z,19.91
2018-06-17T03:51:23.167Z,19.84
2018-06-17T03:52:22.914Z,19.84
2018-06-17T03:53:23.410Z,19.82
2018-06-17T03:54:23.416Z,19.79
2018-06-17T03:55:23.174Z,19.84
2018-06-17T03:56:25.082Z,19.84
2018-06-17T03:57:23.170Z,19.84
2018-06-17T03:58:23.435Z,19.86
2018-06-17T03:59:23.191Z,19.91
2018-06-17T04:00:23.479Z,19.95
2018-06-17T04:01:23.440Z,19.95
2018-06-17T04:02:22.938Z,19.91
2018-06-17T04:03:22.932Z,19.91
2018-06-17T04:04:23.431Z,19.84
2018-06-17T04:05:23.528Z,19.89
2018-06-17T04:06:23.185Z,19.94
2018-06-17T04:07:22.943Z,19.88
2018-06-17T04:08:23.486Z,19.95
2018-06-17T04:09:23.188Z,19.99
2018-06-17T04:10:23.762Z,19.96
2018-06-17T04:11:23.456Z,19.88
2018-06-17T04:12:23.474Z,19.92
2018-06-17T04:13:22.955Z,19.91
2018-06-17T04:14:23.500Z,19.85
2018-06-17T04:15:23.246Z,19.89
2018-06-17T04:16:23.453Z,19.92
2018-06-17T04:17:23.208Z,19.76
2018-06-17T04:18:23.210Z,19.91
2018-06-17T04:19:23.211Z,19.94
2018-06-17T04:20:23.212Z,19.96
2018-06-17T04:21:23.228Z,20.02
2018-06-17T04:22:22.966Z,20.06
2018-06-17T04:23:22.977Z,20.04
2018-06-17T04:24:22.979Z,20.13
2018-06-17T04:25:23.609Z,20.25
2018-06-17T04:26:23.242Z,20.16
2018-06-17T04:27:23.268Z,20.29
2018-06-17T04:28:23.225Z,20.32
2018-06-17T04:29:23.233Z,20.32
2018-06-17T04:30:23.581Z,20.41
2018-06-17T04:31:23.488Z,20.5
2018-06-17T04:32:23.233Z,20.55
2018-06-17T04:33:22.985Z,20.56
2018-06-17T04:34:23.485Z,20.55
2018-06-17T04:35:23.354Z,20.63
2018-06-17T04:36:23.483Z,20.67
2018-06-17T04:37:22.990Z,20.69
2018-06-17T04:38:23.509Z,20.78
2018-06-17T04:39:22.998Z,20.82
2018-06-17T04:40:23.251Z,20.81
2018-06-17T04:41:23.241Z,20.82
2018-06-17T04:42:25.300Z,20.87
2018-06-17T04:43:23.250Z,20.88
2018-06-17T04:44:23.251Z,20.97
2018-06-17T04:45:23.499Z,20.97
2018-06-17T04:46:23.506Z,20.87
2018-06-17T04:47:23.257Z,20.92
2018-06-17T04:48:23.328Z,20.85
2018-06-17T04:49:23.545Z,20.92
2018-06-17T04:50:23.568Z,20.84
2018-06-17T04:51:23.258Z,20.81
2018-06-17T04:52:23.535Z,20.7
2018-06-17T04:53:23.526Z,20.72
2018-06-17T04:54:23.267Z,20.74
2018-06-17T04:55:23.562Z,20.72
2018-06-17T04:56:23.528Z,20.7
2018-06-17T04:57:24.939Z,20.69
2018-06-17T04:58:23.030Z,20.69
2018-06-17T04:59:23.031Z,20.66
2018-06-17T05:00:23.284Z,20.6
2018-06-17T05:01:23.566Z,20.52
2018-06-17T05:02:23.545Z,20.6
2018-06-17T05:03:23.552Z,20.65
2018-06-17T05:04:23.304Z,20.52
2018-06-17T05:05:23.381Z,20.55
2018-06-17T05:06:23.324Z,20.55
2018-06-17T05:07:23.309Z,20.47
2018-06-17T05:08:23.563Z,20.4
2018-06-17T05:09:23.319Z,20.4
2018-06-17T05:10:23.645Z,20.4
2018-06-17T05:11:23.568Z,20.39
2018-06-17T05:12:23.312Z,20.29
2018-06-17T05:13:23.313Z,20.26
2018-06-17T05:14:23.314Z,20.34
2018-06-17T05:15:23.328Z,20.24
2018-06-17T05:16:23.318Z,20.21
2018-06-17T05:17:23.075Z,20.21
2018-06-17T05:18:23.324Z,20.13
2018-06-17T05:19:23.582Z,20.14
2018-06-17T05:20:23.372Z,20.13
2018-06-17T05:21:23.377Z,20.11
2018-06-17T05:22:23.337Z,20.04
2018-06-17T05:23:23.330Z,20.06
2018-06-17T05:24:23.591Z,20.16
2018-06-17T05:25:23.360Z,20.16
2018-06-17T05:26:23.332Z,20.13
2018-06-17T05:27:23.602Z,20.1
2018-06-17T05:28:23.385Z,20.11
2018-06-17T05:29:23.344Z,20.18
2018-06-17T05:30:23.377Z,20.19
2018-06-17T05:31:23.341Z,20.11
2018-06-17T05:32:23.590Z,20.14
2018-06-17T05:33:23.348Z,20.16
2018-06-17T05:34:23.361Z,20.16
2018-06-17T05:35:23.399Z,20.04
2018-06-17T05:36:23.599Z,20.07
2018-06-17T05:37:23.348Z,20.09
2018-06-17T05:38:23.613Z,20.06
2018-06-17T05:39:23.105Z,20.03
2018-06-17T05:40:23.360Z,20.03
2018-06-17T05:41:23.358Z,20.02
2018-06-17T05:42:23.357Z,20.04
2018-06-17T05:43:23.266Z,20.02
2018-06-17T05:44:23.114Z,19.99
2018-06-17T05:45:23.645Z,19.99
2018-06-17T05:46:23.612Z,20.02
2018-06-17T05:47:23.374Z,19.94
2018-06-17T05:48:23.622Z,19.91
2018-06-17T05:49:23.368Z,19.84
2018-06-17T05:50:23.396Z,19.77
2018-06-17T05:51:23.120Z,19.77
2018-06-17T05:52:23.379Z,19.85
2018-06-17T05:53:23.629Z,19.81
2018-06-17T05:54:23.628Z,19.79
2018-06-17T05:55:23.133Z,19.82
2018-06-17T05:56:23.649Z,19.82
2018-06-17T05:57:23.655Z,19.85
2018-06-17T05:58:23.696Z,19.81
2018-06-17T05:59:23.650Z,19.85
2018-06-17T06:00:23.411Z,19.81
2018-06-17T06:01:23.388Z,19.91
2018-06-17T06:02:23.642Z,19.84
2018-06-17T06:03:23.394Z,19.91
2018-06-17T06:04:23.648Z,19.99
2018-06-17T06:05:23.392Z,20.03
2018-06-17T06:06:23.665Z,20.06
2018-06-17T06:07:23.658Z,20.06
2018-06-17T06:08:23.420Z,20.06
2018-06-17T06:09:23.163Z,20.04
2018-06-17T06:10:23.576Z,20.02
2018-06-17T06:11:23.404Z,20.13
2018-06-17T06:12:23.668Z,20.16
2018-06-17T06:13:25.618Z,20.06
2018-06-17T06:23:47.365Z,19.94
2018-06-17T06:24:47.524Z,19.79
2018-06-17T06:25:47.098Z,19.91
2018-06-17T06:26:47.102Z,19.82
2018-06-17T06:27:47.101Z,19.79
2018-06-17T06:28:49.012Z,19.89
2018-06-17T06:29:46.860Z,19.91
2018-06-17T06:30:47.359Z,19.82
2018-06-17T06:31:47.351Z,19.86
2018-06-17T06:32:47.369Z,19.79
2018-06-17T06:33:47.106Z,19.81
2018-06-17T06:34:46.867Z,19.79
2018-06-17T06:35:47.364Z,19.81
2018-06-17T06:36:46.851Z,19.74
2018-06-17T06:37:47.123Z,19.69
2018-06-17T06:38:47.380Z,19.66
2018-06-17T06:39:46.855Z,19.82
2018-06-17T06:40:47.372Z,19.82
2018-06-17T06:41:47.102Z,19.84
2018-06-17T06:42:47.116Z,20.02
2018-06-17T06:43:48.318Z,19.96
2018-06-17T06:44:47.375Z,19.94
2018-06-17T06:45:47.230Z,20.02
2018-06-17T06:46:47.387Z,20.02
2018-06-17T06:47:47.128Z,20.03
2018-06-17T06:48:47.130Z,20.04
2018-06-17T06:49:47.378Z,19.99
2018-06-17T06:50:47.130Z,20.03
2018-06-17T06:51:47.130Z,19.99
2018-06-17T06:52:47.381Z,20.04
2018-06-17T06:53:47.125Z,20.14
2018-06-17T06:54:46.879Z,20.25
2018-06-17T06:55:47.140Z,20.28
2018-06-17T06:56:46.887Z,20.36
2018-06-17T06:57:47.141Z,20.34
2018-06-17T06:58:47.158Z,20.36
2018-06-17T06:59:47.148Z,20.4
2018-06-17T07:00:46.892Z,20.43
2018-06-17T07:01:47.418Z,20.55
2018-06-17T07:02:47.412Z,20.5
2018-06-17T07:03:46.907Z,20.65
2018-06-17T07:04:47.163Z,20.66
2018-06-17T07:05:47.418Z,20.72
2018-06-17T07:06:47.416Z,20.88
2018-06-17T07:07:47.289Z,20.96
2018-06-17T07:08:47.425Z,21.03
2018-06-17T07:09:47.421Z,21.12
2018-06-17T07:10:47.190Z,21.2
2018-06-17T07:11:47.173Z,21.27
2018-06-17T07:12:47.179Z,21.37
2018-06-17T07:13:47.172Z,21.42
2018-06-17T07:14:47.432Z,21.57
2018-06-17T07:15:47.428Z,21.69
2018-06-17T07:16:47.567Z,22
2018-06-17T07:17:47.193Z,22.2
2018-06-17T07:18:47.447Z,22.39
2018-06-17T07:19:47.447Z,22.7
2018-06-17T07:20:47.451Z,22.91
2018-06-17T07:21:47.451Z,23.06
2018-06-17T07:22:47.196Z,23.15
2018-06-17T07:23:46.952Z,23.1
2018-06-17T07:24:47.215Z,22.94
2018-06-17T07:25:47.459Z,22.87
2018-06-17T07:26:46.955Z,22.8
2018-06-17T07:27:47.464Z,22.75
2018-06-17T07:28:47.492Z,22.78
2018-06-17T07:29:47.241Z,22.63
2018-06-17T07:30:47.223Z,22.59
2018-06-17T07:31:47.242Z,22.47
2018-06-17T07:32:47.702Z,22.29
2018-06-17T07:33:47.490Z,22.45
2018-06-17T07:34:47.517Z,22.53
2018-06-17T07:35:47.013Z,22.99
2018-06-17T07:36:47.264Z,23.37
2018-06-17T07:37:47.013Z,23.95
2018-06-17T07:38:47.269Z,24.65
2018-06-17T07:39:47.513Z,25.31
2018-06-17T07:40:47.532Z,25.7
2018-06-17T07:41:47.278Z,26.29
2018-06-17T07:42:47.516Z,26.44
2018-06-17T07:43:47.442Z,26.77
2018-06-17T07:44:48.385Z,27.27
2018-06-17T07:45:47.061Z,27.47
2018-06-17T07:46:47.055Z,27.73
2018-06-17T07:47:47.330Z,28.12
2018-06-17T07:48:47.328Z,28.26
2018-06-17T07:49:47.076Z,28.29
2018-06-17T07:50:47.076Z,28.33
2018-06-17T07:51:47.584Z,28.62
2018-06-17T07:52:47.095Z,28.52
2018-06-17T07:53:47.096Z,28.35
2018-06-17T07:54:47.611Z,27.59
2018-06-17T07:55:47.366Z,27.07
2018-06-17T07:56:47.376Z,26.52
2018-06-17T07:57:47.383Z,26.21
2018-06-17T07:58:47.634Z,25.95
2018-06-17T07:59:47.695Z,25.68
2018-06-17T08:00:47.400Z,25.63
2018-06-17T08:01:47.404Z,25.55
2018-06-17T08:02:47.671Z,25.18
2018-06-17T08:03:47.673Z,25.16
2018-06-17T08:04:47.961Z,24.91
2018-06-17T08:05:47.415Z,24.8
2018-06-17T08:06:47.255Z,25.14
2018-06-17T08:07:47.676Z,25.46
2018-06-17T08:08:47.433Z,25.7
2018-06-17T08:09:47.697Z,25.96
2018-06-17T08:10:47.989Z,26.29
2018-06-17T08:11:47.459Z,26.83
2018-06-17T08:12:47.463Z,27.21
2018-06-17T08:13:47.733Z,27.59
2018-06-17T08:14:47.630Z,27.86
2018-06-17T08:15:47.483Z,27.96
2018-06-17T08:16:47.484Z,27.85
2018-06-17T08:17:47.746Z,27.75
2018-06-17T08:18:47.758Z,27.92
2018-06-17T08:19:47.501Z,28.19
2018-06-17T08:20:47.264Z,28.11
2018-06-17T08:21:47.512Z,27.95
2018-06-17T08:22:47.271Z,27.71
2018-06-17T08:23:47.790Z,27.21
2018-06-17T08:24:47.534Z,26.99
2018-06-17T08:25:47.534Z,27.05
2018-06-17T08:26:47.810Z,27.49
2018-06-17T08:27:47.838Z,28.07
2018-06-17T08:28:47.313Z,28.33
2018-06-17T08:29:47.625Z,28.57
2018-06-17T08:30:47.605Z,28.37
2018-06-17T08:31:47.875Z,28.32
2018-06-17T08:32:47.594Z,28.02
2018-06-17T08:33:47.597Z,27.78
2018-06-17T08:34:47.611Z,27.05
2018-06-17T08:35:47.889Z,26.7
2018-06-17T08:36:47.367Z,26.65
2018-06-17T08:37:47.375Z,26.89
2018-06-17T08:38:47.372Z,27.25
2018-06-17T08:39:47.449Z,27.3
2018-06-17T08:40:47.681Z,27.52
2018-06-17T08:41:47.658Z,27.83
2018-06-17T08:42:47.931Z,28.26
2018-06-17T08:43:47.663Z,28.66
2018-06-17T08:44:50.024Z,28.81
2018-06-17T08:45:47.680Z,28.6
2018-06-17T08:46:47.796Z,28.26
2018-06-17T08:47:47.695Z,28.1
2018-06-17T08:48:47.975Z,27.83
2018-06-17T08:49:47.960Z,27.9
2018-06-17T08:50:47.978Z,27.58
2018-06-17T08:51:47.983Z,27.12
2018-06-17T08:52:47.730Z,26.48
2018-06-17T08:53:47.474Z,25.87
2018-06-17T08:54:47.758Z,25.29
2018-06-17T08:55:47.749Z,25.04
2018-06-17T08:56:47.494Z,25.04
2018-06-17T08:57:47.750Z,25.21
2018-06-17T08:58:47.774Z,25.44
2018-06-17T08:59:48.064Z,25.62
2018-06-17T09:00:47.523Z,25.63
2018-06-17T09:01:47.524Z,25.69
2018-06-17T09:02:47.530Z,25.66
2018-06-17T09:03:48.034Z,25.59
2018-06-17T09:04:48.071Z,25.68
2018-06-17T09:05:47.819Z,25.99
2018-06-17T09:06:47.835Z,26.03
2018-06-17T09:07:47.820Z,26
2018-06-17T09:08:47.828Z,26.03
2018-06-17T09:09:47.835Z,25.84
2018-06-17T09:10:48.088Z,25.68
2018-06-17T09:11:48.098Z,25.47
2018-06-17T09:12:47.856Z,25.22
2018-06-17T09:13:47.615Z,25.01
2018-06-17T09:14:48.950Z,24.86
2018-06-17T09:15:48.124Z,24.78
2018-06-17T09:16:47.875Z,24.66
2018-06-17T09:17:48.125Z,24.54
2018-06-17T09:18:47.875Z,24.36
2018-06-17T09:19:48.134Z,24.33
2018-06-17T09:20:47.644Z,24.26
2018-06-17T09:21:47.916Z,24.21
2018-06-17T09:22:47.666Z,24.35
2018-06-17T09:23:48.167Z,24.29
2018-06-17T09:24:47.925Z,24.45
2018-06-17T09:25:47.671Z,24.61
2018-06-17T09:26:48.182Z,24.76
2018-06-17T09:27:47.667Z,25.01
2018-06-17T09:28:47.945Z,25.11
2018-06-17T09:29:47.945Z,25.21
2018-06-17T09:30:48.205Z,25.4
2018-06-17T09:31:48.090Z,25.38
2018-06-17T09:32:47.953Z,25.46
2018-06-17T09:33:47.961Z,25.51
2018-06-17T09:34:47.965Z,25.62
2018-06-17T09:35:47.968Z,25.38
2018-06-17T09:36:48.249Z,25.38
2018-06-17T09:37:48.221Z,25.22
2018-06-17T09:38:47.976Z,24.81
2018-06-17T09:39:47.994Z,24.69
2018-06-17T09:40:47.988Z,24.53
2018-06-17T09:41:48.267Z,24.3
2018-06-17T09:42:48.000Z,24.32
2018-06-17T09:43:48.196Z,24.28
2018-06-17T09:44:48.257Z,24.39
2018-06-17T09:45:47.831Z,24.5
2018-06-17T09:46:48.077Z,24.53
2018-06-17T09:47:48.281Z,24.54
2018-06-17T09:48:48.025Z,24.39
2018-06-17T09:49:47.789Z,24.18
2018-06-17T09:50:48.042Z,24.29
2018-06-17T09:51:48.040Z,24.17
2018-06-17T09:52:48.316Z,24.28
2018-06-17T09:53:48.071Z,24.24
2018-06-17T09:54:48.069Z,24.16
2018-06-17T09:55:48.078Z,24.3
2018-06-17T09:56:48.328Z,24.32
2018-06-17T09:57:48.076Z,24.21
2018-06-17T09:58:48.323Z,24.17
2018-06-17T09:59:48.085Z,24.17
2018-06-17T10:00:48.394Z,24.3
2018-06-17T10:01:48.141Z,24.45
2018-06-17T10:02:48.382Z,24.48
2018-06-17T10:03:48.085Z,24.5
2018-06-17T10:04:48.346Z,24.39
2018-06-17T10:05:48.112Z,24.38
2018-06-17T10:06:48.406Z,24.55
2018-06-17T10:07:48.366Z,24.63
2018-06-17T10:08:48.371Z,24.88
2018-06-17T10:09:48.132Z,25.08
2018-06-17T10:10:48.128Z,25.29
2018-06-17T10:11:48.389Z,25.43
2018-06-17T10:12:47.899Z,25.55
2018-06-17T10:13:47.886Z,25.66
2018-06-17T10:14:48.163Z,25.59
2018-06-17T10:15:49.535Z,25.58
2018-06-17T10:16:48.413Z,25.66
2018-06-17T10:17:48.407Z,25.66
2018-06-17T10:18:48.410Z,25.55
2018-06-17T10:19:48.428Z,25.43
2018-06-17T10:20:48.427Z,25.46
2018-06-17T10:21:48.178Z,25.46
2018-06-17T10:22:47.939Z,25.35
2018-06-17T10:53:15.475Z,26.43
2018-06-17T10:54:15.221Z,26.26
2018-06-17T10:55:15.224Z,26.23
2018-06-17T10:56:15.292Z,26.19
2018-06-17T10:57:15.229Z,26.28
2018-06-17T10:58:15.242Z,26.45
2018-06-17T10:59:15.488Z,26.45
2018-06-17T11:00:15.239Z,26.65
2018-06-17T11:01:15.001Z,26.73
2018-06-17T11:02:15.258Z,26.68
2018-06-17T11:03:15.245Z,26.71
2018-06-17T11:04:15.254Z,26.99
2018-06-17T11:05:15.386Z,27.03
2018-06-17T11:06:15.013Z,26.9
2018-06-17T11:07:15.307Z,26.81
2018-06-17T11:08:15.268Z,26.7
2018-06-17T11:09:15.275Z,26.68
2018-06-17T11:10:15.570Z,26.58
2018-06-17T11:11:15.556Z,26.62
2018-06-17T11:12:15.291Z,26.62
2018-06-17T11:13:15.476Z,26.62
2018-06-17T11:14:15.562Z,26.45
2018-06-17T11:15:15.588Z,26.25
2018-06-17T11:16:15.319Z,25.98
2018-06-17T11:17:15.076Z,25.93
2018-06-17T11:18:15.083Z,25.83
2018-06-17T11:19:15.580Z,25.91
2018-06-17T11:20:15.589Z,25.88
2018-06-17T11:21:15.333Z,25.81
2018-06-17T11:22:15.105Z,25.99
2018-06-17T11:23:15.594Z,26.05
2018-06-17T11:24:15.353Z,26.28
2018-06-17T11:25:15.352Z,26.23
2018-06-17T11:26:15.635Z,26.16
2018-06-17T11:27:15.623Z,26.06
2018-06-17T11:28:15.640Z,25.87
2018-06-17T11:29:15.378Z,25.63
2018-06-17T11:30:15.386Z,25.55
2018-06-17T11:31:15.392Z,25.4
2018-06-17T11:32:15.395Z,25.16
2018-06-17T11:33:15.160Z,25.13
2018-06-17T11:34:15.417Z,25.04
2018-06-17T11:35:15.408Z,25.13
2018-06-17T11:36:15.412Z,25.16
2018-06-17T11:37:15.672Z,25.35
2018-06-17T11:38:15.680Z,25.41
2018-06-17T11:39:16.044Z,25.5
2018-06-17T11:40:15.804Z,25.5
2018-06-17T11:41:15.690Z,25.54
2018-06-17T11:42:15.461Z,25.5
2018-06-17T11:43:15.701Z,25.6
2018-06-17T11:44:15.451Z,25.68
2018-06-17T11:45:15.455Z,25.75
2018-06-17T11:46:15.472Z,25.84
2018-06-17T11:47:15.723Z,26.03
2018-06-17T11:48:15.723Z,26.23
2018-06-17T11:49:15.744Z,26.45
2018-06-17T11:50:15.739Z,26.48
2018-06-17T11:51:15.238Z,26.6
2018-06-17T11:52:15.753Z,26.66
2018-06-17T11:53:15.760Z,26.77
2018-06-17T11:54:15.506Z,26.8
2018-06-17T11:55:15.787Z,26.77
2018-06-17T11:56:15.262Z,26.68
2018-06-17T11:57:15.519Z,26.62
2018-06-17T11:58:15.518Z,26.59
2018-06-17T11:59:15.773Z,26.43
2018-06-17T12:00:15.804Z,26.31
2018-06-17T12:01:15.532Z,26.19
2018-06-17T12:02:15.290Z,26.1
2018-06-17T12:03:15.299Z,25.93
2018-06-17T12:04:15.555Z,25.84
2018-06-17T12:05:15.575Z,25.62
2018-06-17T12:06:15.826Z,25.32
2018-06-17T12:07:15.572Z,25.26
2018-06-17T12:08:15.835Z,25.29
2018-06-17T12:09:15.578Z,25.08
2018-06-17T12:10:15.597Z,25.07
2018-06-17T12:11:15.608Z,25.01
2018-06-17T12:12:15.596Z,24.95
2018-06-17T12:13:15.614Z,24.84
2018-06-17T12:14:15.619Z,24.95
2018-06-17T12:15:15.896Z,24.95
2018-06-17T12:16:15.628Z,25.07
2018-06-17T12:17:15.382Z,25.17
2018-06-17T12:18:15.370Z,25.44
2018-06-17T12:19:15.881Z,25.65
2018-06-17T12:20:15.374Z,25.84
2018-06-17T12:21:15.905Z,26.06
2018-06-17T12:22:15.636Z,26.25
2018-06-17T12:23:15.664Z,26.4
2018-06-17T12:24:15.396Z,26.71
2018-06-17T12:25:15.407Z,26.71
2018-06-17T12:26:15.934Z,26.53
2018-06-17T12:27:15.930Z,26.41
2018-06-17T12:28:15.673Z,26.38
2018-06-17T12:29:15.935Z,26.38
2018-06-17T12:30:15.687Z,26.52
2018-06-17T12:31:15.692Z,26.41
2018-06-17T12:32:15.954Z,26.58
2018-06-17T12:33:15.706Z,26.56
2018-06-17T12:34:15.704Z,26.45
2018-06-17T12:35:15.973Z,26.44
2018-06-17T12:36:15.973Z,26.43
2018-06-17T12:37:15.975Z,26.34
2018-06-17T12:38:15.725Z,26.37
2018-06-17T12:39:15.739Z,26.41
2018-06-17T12:40:16.007Z,26.56
2018-06-17T12:41:16.000Z,26.77
2018-06-17T12:42:15.745Z,26.75
2018-06-17T12:43:16.013Z,26.8
2018-06-17T12:44:15.770Z,26.74
2018-06-17T12:45:15.504Z,26.63
2018-06-17T12:46:15.771Z,26.51
2018-06-17T12:47:16.025Z,26.52
2018-06-17T12:48:15.771Z,26.56
2018-06-17T12:49:15.793Z,26.58
2018-06-17T12:50:15.533Z,26.55
2018-06-17T12:51:15.535Z,26.38
2018-06-17T12:52:16.085Z,26.21
2018-06-17T12:53:16.906Z,26.19
2018-06-17T12:54:15.807Z,26.06
2018-06-17T12:55:15.576Z,26.09
2018-06-17T12:56:15.828Z,25.95
2018-06-17T12:57:15.829Z,25.72
2018-06-17T12:58:15.574Z,25.73
2018-06-17T12:59:16.088Z,25.84
2018-06-17T13:00:16.098Z,25.78
2018-06-17T13:01:16.101Z,25.84
2018-06-17T13:02:15.878Z,25.72
2018-06-17T13:03:16.118Z,25.81
2018-06-17T13:04:15.856Z,25.63
2018-06-17T13:05:15.873Z,25.46
2018-06-17T13:06:16.127Z,25.36
2018-06-17T13:07:16.136Z,25.25
2018-06-17T13:08:16.145Z,25.44
2018-06-17T13:09:15.911Z,25.59
2018-06-17T13:10:16.079Z,25.68
2018-06-17T13:11:16.256Z,25.84
2018-06-17T13:12:16.265Z,25.73
2018-06-17T13:13:16.049Z,25.66
2018-06-17T13:14:15.666Z,25.73
2018-06-17T13:15:16.166Z,25.96
2018-06-17T13:16:16.276Z,26.06
2018-06-17T13:17:16.257Z,26.29
2018-06-17T13:18:16.189Z,26.37
2018-06-17T13:19:16.023Z,26.36
2018-06-17T13:20:15.972Z,26.36
2018-06-17T13:21:16.218Z,26.47
2018-06-17T13:22:15.952Z,26.58
2018-06-17T13:23:16.207Z,26.53
2018-06-17T13:24:15.999Z,26.52
2018-06-17T13:25:16.223Z,26.45
2018-06-17T13:26:16.334Z,26.41
2018-06-17T13:27:16.319Z,26.55
2018-06-17T13:28:16.096Z,26.58
2018-06-17T13:29:16.245Z,26.66
2018-06-17T13:30:15.997Z,26.62
2018-06-17T13:31:16.104Z,26.65
2018-06-17T13:32:16.285Z,26.7
2018-06-17T13:33:16.061Z,26.65